Time;durP1;ratioP1;P1;durP2;ratioP2;P2;SDS_P1;SDS_P2;PMS_P1;PMS_P2;Temp;Humidity;BMP_temperature;BMP_pressure;BME280_temperature;BME280_humidity;BME280_pressure;Samples;Min_cycle;Max_cycle;Signal;HPM_P1;HPM_P2
2022/05/17 00:01:07;;;;;;;7.63;4.43;;;21.70;74.70;;;;;;4997986;28;20208;-77
2022/05/17 00:03:35;;;;;;;7.72;4.40;;;21.80;74.60;;;;;;4993400;28;20196;-77
2022/05/17 00:06:05;;;;;;;8.27;4.40;;;21.80;74.40;;;;;;4990134;28;20671;-77
2022/05/17 00:08:35;;;;;;;7.27;4.50;;;21.80;74.30;;;;;;4998023;28;20196;-77
2022/05/17 00:11:06;;;;;;;8.77;5.18;;;21.80;74.10;;;;;;4989233;28;20232;-78
2022/05/17 00:13:34;;;;;;;9.40;5.38;;;21.80;74.00;;;;;;4982857;28;20205;-77
2022/05/17 00:16:03;;;;;;;11.10;6.57;;;21.80;73.80;;;;;;4992200;28;20222;-77
2022/05/17 00:18:33;;;;;;;11.98;6.90;;;21.80;74.00;;;;;;4989279;28;20211;-76
2022/05/17 00:21:03;;;;;;;12.82;6.50;;;21.80;73.90;;;;;;4995242;28;20197;-76
2022/05/17 00:23:31;;;;;;;10.57;6.50;;;21.80;73.80;;;;;;4989263;28;20603;-77
2022/05/17 00:26:05;;;;;;;9.87;6.87;;;21.80;73.70;;;;;;4987265;28;20206;-76
2022/05/17 00:28:33;;;;;;;12.43;7.07;;;21.80;73.70;;;;;;4992240;28;20200;-76
2022/05/17 00:31:02;;;;;;;12.13;7.35;;;21.80;73.70;;;;;;4995956;28;20567;-77
2022/05/17 00:33:30;;;;;;;12.47;7.27;;;21.80;73.60;;;;;;4993740;28;20201;-77
2022/05/17 00:35:59;;;;;;;11.23;7.37;;;21.70;73.60;;;;;;4992266;28;20216;-76
2022/05/17 00:38:27;;;;;;;13.30;7.10;;;21.70;73.60;;;;;;4989713;28;20207;-77
2022/05/17 00:40:55;;;;;;;12.07;7.20;;;21.70;73.60;;;;;;4996380;28;20223;-77
2022/05/17 00:44:42;;;;;;;11.57;7.57;;;21.70;73.60;;;;;;4992730;28;20208;-77
2022/05/17 00:46:22;;;;;;;9.50;7.30;;;21.60;73.70;;;;;;4996651;28;20224;-76
2022/05/17 00:48:51;;;;;;;13.90;6.77;;;21.60;73.70;;;;;;4993075;28;20189;-77
2022/05/17 00:51:22;;;;;;;13.20;7.60;;;21.50;73.60;;;;;;4986980;28;20196;-77
2022/05/17 00:53:51;;;;;;;11.63;7.50;;;21.50;73.60;;;;;;4994017;28;20200;-77
2022/05/17 00:56:23;;;;;;;12.47;7.37;;;21.50;73.70;;;;;;4986948;28;20220;-77
2022/05/17 00:58:56;;;;;;;12.10;7.50;;;21.50;73.80;;;;;;4992255;28;20201;-77
2022/05/17 01:01:29;;;;;;;10.47;7.07;;;21.40;73.80;;;;;;4991371;28;20205;-76
2022/05/17 01:04:03;;;;;;;14.20;7.93;;;21.40;73.80;;;;;;4994606;28;20197;-77
2022/05/17 01:06:39;;;;;;;11.23;7.77;;;21.40;73.90;;;;;;4994560;28;20192;-76
2022/05/17 01:09:07;;;;;;;10.87;7.60;;;21.30;73.90;;;;;;4992306;28;20192;-77
2022/05/17 01:11:36;;;;;;;13.10;8.37;;;21.30;73.90;;;;;;4982910;28;20208;-77
2022/05/17 01:16:51;;;;;;;14.77;8.63;;;21.20;74.00;;;;;;4988572;28;20213;-76
2022/05/17 01:19:20;;;;;;;14.40;8.57;;;21.20;74.00;;;;;;4988022;28;20215;-76
2022/05/17 01:21:50;;;;;;;11.97;8.10;;;21.10;74.10;;;;;;4986998;28;20201;-77
2022/05/17 01:24:19;;;;;;;15.47;8.67;;;21.10;74.20;;;;;;4992279;28;20201;-77
2022/05/17 01:26:53;;;;;;;17.07;8.97;;;21.10;75.20;;;;;;4988051;28;20193;-77
2022/05/17 01:29:22;;;;;;;12.80;8.43;;;21.00;74.50;;;;;;4982992;28;20192;-77
2022/05/17 01:31:51;;;;;;;13.00;9.20;;;21.00;74.50;;;;;;4996029;28;20642;-77
2022/05/17 01:34:19;;;;;;;12.93;8.37;;;20.90;74.50;;;;;;4997712;28;20204;-77
2022/05/17 01:36:48;;;;;;;13.83;8.70;;;20.90;74.60;;;;;;4998780;28;20223;-77
2022/05/17 01:39:18;;;;;;;11.73;8.83;;;20.90;74.70;;;;;;4997700;28;20208;-76
2022/05/17 01:41:46;;;;;;;11.60;8.00;;;20.90;74.80;;;;;;4993491;28;20188;-77
2022/05/17 01:44:14;;;;;;;16.77;8.60;;;20.90;74.80;;;;;;4994713;28;20197;-76
2022/05/17 01:46:43;;;;;;;12.40;8.90;;;20.90;74.90;;;;;;4987887;28;21053;-77
2022/05/17 01:49:11;;;;;;;15.60;8.70;;;20.80;74.80;;;;;;5001088;28;20209;-77
2022/05/17 01:51:39;;;;;;;14.23;8.63;;;20.80;75.00;;;;;;4993327;28;20202;-77
2022/05/17 01:54:09;;;;;;;14.73;9.27;;;20.70;75.00;;;;;;4991188;28;20189;-77
2022/05/17 01:56:39;;;;;;;12.50;9.27;;;20.80;75.10;;;;;;4988201;28;20220;-77
2022/05/17 01:59:07;;;;;;;15.37;9.33;;;20.70;75.20;;;;;;4998921;28;20209;-76
2022/05/17 02:01:35;;;;;;;17.23;8.57;;;20.70;75.30;;;;;;4998060;28;20201;-76
2022/05/17 02:04:04;;;;;;;13.13;8.90;;;20.60;75.40;;;;;;4995532;28;20199;-77
2022/05/17 02:06:33;;;;;;;12.23;8.67;;;20.60;75.50;;;;;;4989756;28;20212;-76
2022/05/17 02:09:01;;;;;;;13.40;8.33;;;20.60;75.50;;;;;;4991097;28;20200;-77
2022/05/17 02:11:30;;;;;;;11.93;9.10;;;20.60;75.50;;;;;;4995485;28;20340;-77
2022/05/17 02:13:59;;;;;;;13.13;9.17;;;20.50;75.50;;;;;;4985718;28;20648;-77
2022/05/17 02:16:28;;;;;;;18.20;8.67;;;20.50;75.60;;;;;;4986952;28;20213;-77
2022/05/17 02:18:56;;;;;;;13.23;8.40;;;20.50;75.90;;;;;;4990138;28;20550;-77
2022/05/17 02:21:24;;;;;;;15.07;8.27;;;20.50;75.60;;;;;;4989916;28;20702;-77
2022/05/17 02:23:53;;;;;;;14.90;9.10;;;20.50;75.70;;;;;;4995819;28;20205;-77
2022/05/17 02:26:21;;;;;;;13.10;8.73;;;20.40;75.60;;;;;;4993369;28;20196;-77
2022/05/17 02:28:49;;;;;;;19.37;8.70;;;20.40;75.70;;;;;;4996677;28;20197;-77
2022/05/17 02:31:19;;;;;;;14.50;8.97;;;20.40;75.80;;;;;;4987163;28;20209;-76
2022/05/17 02:33:48;;;;;;;15.43;9.30;;;20.40;75.80;;;;;;4988237;28;20189;-76
2022/05/17 02:36:16;;;;;;;14.07;8.60;;;20.30;75.80;;;;;;4995702;28;20217;-75
2022/05/17 02:38:44;;;;;;;16.83;8.97;;;20.30;75.80;;;;;;4982149;28;20208;-76
2022/05/17 02:41:13;;;;;;;16.17;8.13;;;20.30;75.90;;;;;;4993027;28;20194;-77
2022/05/17 02:43:41;;;;;;;12.23;8.67;;;20.30;76.00;;;;;;4994564;28;20196;-76
2022/05/17 02:46:09;;;;;;;15.37;8.47;;;20.30;76.10;;;;;;4991773;28;20208;-77
2022/05/17 02:48:40;;;;;;;14.53;8.77;;;20.30;76.20;;;;;;4989726;28;20228;-77
2022/05/17 02:51:10;;;;;;;16.70;8.67;;;20.20;76.30;;;;;;4989184;28;20197;-77
2022/05/17 02:53:39;;;;;;;15.33;7.97;;;20.20;76.30;;;;;;4993898;28;20650;-77
2022/05/17 02:56:08;;;;;;;11.93;8.37;;;20.20;76.50;;;;;;4995480;28;20228;-77
2022/05/17 02:58:37;;;;;;;11.97;8.50;;;20.20;76.50;;;;;;4992300;28;20566;-77
2022/05/17 03:01:06;;;;;;;20.83;9.53;;;20.20;76.50;;;;;;4996503;28;20227;-77
2022/05/17 03:03:39;;;;;;;13.27;8.40;;;20.20;76.50;;;;;;4982455;28;20295;-77
2022/05/17 03:06:08;;;;;;;14.30;8.83;;;20.10;76.60;;;;;;4991468;28;20204;-77
2022/05/17 03:08:37;;;;;;;15.13;8.77;;;20.10;76.60;;;;;;4988825;28;20220;-77
2022/05/17 03:11:06;;;;;;;18.73;8.93;;;20.20;76.80;;;;;;4994819;28;20199;-77
2022/05/17 03:13:35;;;;;;;16.43;8.50;;;20.10;76.80;;;;;;4982723;28;20197;-77
2022/05/17 03:16:05;;;;;;;16.40;8.50;;;20.10;76.90;;;;;;4988310;28;20242;-76
2022/05/17 03:18:40;;;;;;;17.13;9.03;;;20.10;77.00;;;;;;4987911;28;20255;-77
2022/05/17 03:21:08;;;;;;;12.13;8.27;;;20.10;76.90;;;;;;4988868;28;20203;-77
2022/05/17 03:23:40;;;;;;;13.70;8.87;;;20.10;76.90;;;;;;4988855;28;20219;-77
2022/05/17 03:26:08;;;;;;;16.63;8.63;;;20.10;77.00;;;;;;4983313;28;20193;-76
2022/05/17 03:28:37;;;;;;;13.07;8.70;;;20.10;77.10;;;;;;4990251;28;20201;-76
2022/05/17 03:31:08;;;;;;;14.07;9.00;;;20.10;77.90;;;;;;4984436;28;20205;-76
2022/05/17 03:33:37;;;;;;;15.70;9.13;;;20.10;77.20;;;;;;4994419;28;20196;-77
2022/05/17 03:36:08;;;;;;;15.10;8.83;;;20.10;77.40;;;;;;4985841;28;20233;-76
2022/05/17 03:38:37;;;;;;;17.10;9.40;;;20.10;77.50;;;;;;5002300;28;20196;-76
2022/05/17 03:41:11;;;;;;;17.33;9.07;;;20.10;77.50;;;;;;4993733;28;20682;-76
2022/05/17 03:43:39;;;;;;;18.00;9.93;;;20.10;77.60;;;;;;4994831;28;20268;-76
2022/05/17 03:46:08;;;;;;;18.38;11.70;;;20.10;77.70;;;;;;4993680;28;20440;-76
2022/05/17 03:48:37;;;;;;;18.53;9.90;;;20.20;80.10;;;;;;4993156;28;20218;-76
2022/05/17 03:51:14;;;;;;;15.87;9.37;;;20.20;79.70;;;;;;4990409;28;20234;-76
2022/05/17 03:53:43;;;;;;;14.17;9.67;;;20.20;79.60;;;;;;4998012;28;20192;-77
2022/05/17 03:56:12;;;;;;;14.60;8.60;;;20.20;79.50;;;;;;4986965;28;20870;-77
2022/05/17 03:58:41;;;;;;;17.27;9.47;;;20.20;79.50;;;;;;4998106;28;20224;-77
2022/05/17 04:01:09;;;;;;;22.90;10.07;;;20.30;79.60;;;;;;4983609;28;20204;-76
2022/05/17 04:03:38;;;;;;;19.70;9.83;;;20.30;79.80;;;;;;4980534;28;20197;-77
2022/05/17 04:06:07;;;;;;;15.97;10.83;;;20.30;80.40;;;;;;4986829;28;20197;-76
2022/05/17 04:08:37;;;;;;;16.77;9.63;;;20.30;80.30;;;;;;4994834;28;20213;-76
2022/05/17 04:11:06;;;;;;;19.37;10.50;;;20.30;80.20;;;;;;4997757;28;20192;-76
2022/05/17 04:13:34;;;;;;;22.13;10.87;;;20.40;80.20;;;;;;4991543;28;20753;-76
2022/05/17 04:16:03;;;;;;;16.37;11.00;;;20.40;80.50;;;;;;4985318;28;20209;-76
2022/05/17 04:18:32;;;;;;;22.53;10.73;;;20.50;80.80;;;;;;4983875;28;20225;-77
2022/05/17 04:21:01;;;;;;;15.83;10.97;;;20.50;81.10;;;;;;4997301;28;20203;-77
2022/05/17 04:23:30;;;;;;;19.23;11.33;;;20.60;81.30;;;;;;4984771;28;20201;-77
2022/05/17 04:26:00;;;;;;;20.20;11.23;;;20.60;81.30;;;;;;4996478;28;20192;-76
2022/05/17 04:28:28;;;;;;;17.03;9.97;;;20.60;81.40;;;;;;4990676;28;20197;-76
2022/05/17 04:30:57;;;;;;;23.17;12.60;;;20.70;81.30;;;;;;4998060;28;20192;-77
2022/05/17 04:33:25;;;;;;;16.67;10.53;;;20.80;81.10;;;;;;4996106;28;20218;-76
2022/05/17 04:35:53;;;;;;;19.73;11.43;;;20.80;81.40;;;;;;4987244;28;20192;-76
2022/05/17 04:38:22;;;;;;;17.50;11.77;;;20.90;81.30;;;;;;4995316;28;20905;-76
2022/05/17 04:40:50;;;;;;;15.20;11.03;;;20.90;81.10;;;;;;5001977;28;20200;-76
2022/05/17 04:43:20;;;;;;;21.00;10.90;;;21.00;81.20;;;;;;5001796;28;20235;-76
2022/05/17 04:45:48;;;;;;;18.13;11.10;;;21.10;81.00;;;;;;4995989;28;20203;-76
2022/05/17 04:48:17;;;;;;;20.67;11.03;;;21.10;80.80;;;;;;4990206;28;20231;-76
2022/05/17 04:50:45;;;;;;;20.10;10.93;;;21.20;80.80;;;;;;4994429;28;20201;-75
2022/05/17 04:53:14;;;;;;;20.63;11.10;;;21.30;80.80;;;;;;4999956;28;20215;-76
2022/05/17 04:55:42;;;;;;;16.80;10.33;;;21.40;80.80;;;;;;4989603;28;20201;-76
2022/05/17 04:58:10;;;;;;;13.93;8.82;;;21.40;80.70;;;;;;4991817;28;20217;-76
2022/05/17 05:00:40;;;;;;;18.63;9.90;;;21.50;80.70;;;;;;4995623;28;20196;-75
2022/05/17 05:03:09;;;;;;;14.97;9.03;;;21.50;80.60;;;;;;4998025;28;20204;-75
2022/05/17 05:05:38;;;;;;;16.88;9.90;;;21.60;80.50;;;;;;4997933;28;20201;-76
2022/05/17 05:08:06;;;;;;;12.45;8.88;;;21.70;80.30;;;;;;4997713;28;20558;-76
2022/05/17 05:10:35;;;;;;;15.48;9.45;;;21.80;80.20;;;;;;4990913;28;20205;-75
2022/05/17 05:13:03;;;;;;;13.30;9.10;;;21.80;80.00;;;;;;5003225;28;20199;-76
2022/05/17 05:15:32;;;;;;;15.48;9.38;;;21.90;79.90;;;;;;4991587;28;20201;-76
2022/05/17 05:18:02;;;;;;;15.50;8.80;;;22.00;79.70;;;;;;4993241;28;20223;-76
2022/05/17 05:20:31;;;;;;;13.48;9.45;;;22.00;79.40;;;;;;4992241;28;20236;-76
2022/05/17 05:22:59;;;;;;;14.88;8.77;;;22.10;79.30;;;;;;5001224;28;20196;-76
2022/05/17 05:25:28;;;;;;;14.00;9.05;;;22.20;79.10;;;;;;4999605;28;20200;-76
2022/05/17 05:27:56;;;;;;;15.40;8.65;;;22.20;78.70;;;;;;4991022;28;20682;-77
2022/05/17 05:30:25;;;;;;;14.25;8.88;;;22.30;78.60;;;;;;4989494;28;20196;-76
2022/05/17 05:32:53;;;;;;;14.07;8.93;;;22.40;78.50;;;;;;4986294;28;20193;-76
2022/05/17 05:35:24;;;;;;;9.00;6.53;;;22.40;78.20;;;;;;4995030;28;20200;-76
2022/05/17 05:37:53;;;;;;;13.30;8.88;;;22.50;78.20;;;;;;5000854;28;20208;-77
2022/05/17 05:40:22;;;;;;;13.13;8.93;;;22.60;77.90;;;;;;5001928;28;20208;-76
2022/05/17 05:42:51;;;;;;;16.38;9.50;;;22.70;77.70;;;;;;5002960;28;20204;-76
2022/05/17 05:45:20;;;;;;;21.52;10.50;;;22.70;77.70;;;;;;4997304;28;20203;-76
2022/05/17 05:47:50;;;;;;;18.45;9.23;;;22.80;77.60;;;;;;4990125;28;20638;-78
2022/05/17 05:50:18;;;;;;;14.27;9.25;;;22.90;77.50;;;;;;4998396;28;20205;-75
2022/05/17 05:52:49;;;;;;;20.42;9.68;;;22.90;77.20;;;;;;4992416;28;20655;-77
2022/05/17 05:55:20;;;;;;;18.10;9.32;;;23.00;77.10;;;;;;4990451;28;20203;-78
2022/05/17 05:57:50;;;;;;;14.77;8.10;;;23.10;77.00;;;;;;5004889;28;20208;-80
2022/05/17 06:00:22;;;;;;;16.80;8.65;;;23.10;76.70;;;;;;4996148;28;20200;-76
2022/05/17 06:02:51;;;;;;;18.10;8.85;;;23.20;76.30;;;;;;4997438;28;20197;-77
2022/05/17 06:05:21;;;;;;;12.27;8.18;;;23.30;76.10;;;;;;4999093;28;20204;-75
2022/05/17 06:07:51;;;;;;;17.25;9.93;;;23.30;76.10;;;;;;4993221;28;20189;-76
2022/05/17 06:10:21;;;;;;;16.38;8.40;;;23.40;76.00;;;;;;4992653;28;20203;-76
2022/05/17 06:12:50;;;;;;;19.13;9.32;;;23.50;75.80;;;;;;4995792;28;20193;-78
2022/05/17 06:15:18;;;;;;;15.10;8.95;;;23.60;75.50;;;;;;4988455;28;20192;-78
2022/05/17 06:17:50;;;;;;;16.88;8.85;;;23.60;75.00;;;;;;4997107;28;20207;-77
2022/05/17 06:20:18;;;;;;;20.15;9.60;;;23.70;74.70;;;;;;4993569;28;20213;-75
2022/05/17 06:22:47;;;;;;;13.18;9.07;;;23.80;74.90;;;;;;4992956;28;20215;-75
2022/05/17 06:25:17;;;;;;;20.50;10.05;;;23.80;74.50;;;;;;4996712;28;20204;-75
2022/05/17 06:27:45;;;;;;;15.65;8.70;;;23.90;74.40;;;;;;4991662;28;20195;-76
2022/05/17 06:30:14;;;;;;;17.13;8.68;;;24.00;74.20;;;;;;4991947;28;20875;-77
2022/05/17 06:32:43;;;;;;;21.73;8.45;;;24.00;73.60;;;;;;4989328;28;20872;-77
2022/05/17 06:35:13;;;;;;;15.65;9.30;;;24.10;73.40;;;;;;4995302;28;20205;-76
2022/05/17 06:37:42;;;;;;;20.65;9.45;;;24.20;72.70;;;;;;4994667;28;20193;-76
2022/05/17 06:40:11;;;;;;;18.75;7.75;;;24.20;72.50;;;;;;4999888;28;20674;-76
2022/05/17 06:42:41;;;;;;;15.32;7.65;;;24.30;72.50;;;;;;4991244;28;20212;-75
2022/05/17 06:45:11;;;;;;;17.13;7.60;;;24.40;72.40;;;;;;4993997;28;20647;-77
2022/05/17 06:47:42;;;;;;;14.10;8.32;;;24.50;72.20;;;;;;4990112;28;20228;-75
2022/05/17 06:50:11;;;;;;;15.15;8.25;;;24.50;71.20;;;;;;4990531;28;20196;-76
2022/05/17 06:52:40;;;;;;;13.63;8.38;;;24.60;71.30;;;;;;4985507;28;20197;-76
2022/05/17 06:55:09;;;;;;;18.15;7.65;;;24.70;71.10;;;;;;4994572;28;20201;-76
2022/05/17 06:57:38;;;;;;;15.25;8.05;;;24.80;71.10;;;;;;4996829;28;20207;-76
2022/05/17 07:00:09;;;;;;;13.23;7.35;;;24.80;70.80;;;;;;5000061;28;20212;-76
2022/05/17 07:02:38;;;;;;;15.00;8.63;;;24.90;70.20;;;;;;4996878;28;20196;-75
2022/05/17 07:05:08;;;;;;;16.10;9.13;;;24.90;69.80;;;;;;5001720;28;20204;-77
2022/05/17 07:07:37;;;;;;;17.42;8.40;;;25.00;69.40;;;;;;4983282;28;20200;-77
2022/05/17 07:13:13;;;;;;;12.73;8.13;;;25.10;69.10;;;;;;4998396;28;20188;-76
2022/05/17 07:15:46;;;;;;;19.38;9.05;;;25.20;69.10;;;;;;5006136;28;20287;-76
2022/05/17 07:18:17;;;;;;;16.70;7.47;;;25.30;68.90;;;;;;4998096;28;20243;-75
2022/05/17 07:20:46;;;;;;;12.13;6.55;;;25.40;68.80;;;;;;4995451;28;20663;-79
2022/05/17 07:23:15;;;;;;;13.10;7.43;;;25.40;68.80;;;;;;4996697;28;20197;-78
2022/05/17 07:25:45;;;;;;;12.90;7.43;;;25.50;68.60;;;;;;4993054;28;20917;-76
2022/05/17 07:28:17;;;;;;;15.52;7.95;;;25.60;68.20;;;;;;4997021;28;20201;-76
2022/05/17 07:30:47;;;;;;;17.65;8.10;;;25.60;68.20;;;;;;4990062;28;20650;-78
2022/05/17 07:33:17;;;;;;;13.18;6.88;;;25.70;67.80;;;;;;4994511;28;20228;-77
2022/05/17 07:35:45;;;;;;;11.50;7.95;;;25.70;68.00;;;;;;4989919;28;20208;-81
2022/05/17 07:38:17;;;;;;;16.02;7.35;;;25.80;67.70;;;;;;4992629;28;20360;-79
2022/05/17 07:40:45;;;;;;;13.18;7.53;;;25.90;67.20;;;;;;4991142;28;20199;-78
2022/05/17 07:43:15;;;;;;;15.07;8.05;;;25.90;67.20;;;;;;4995065;28;20201;-81
2022/05/17 07:45:44;;;;;;;11.35;7.40;;;25.90;66.70;;;;;;4994032;28;20189;-80
2022/05/17 07:48:14;;;;;;;21.75;9.38;;;26.00;66.30;;;;;;4991229;28;20230;-82
2022/05/17 07:50:43;;;;;;;14.45;7.85;;;26.00;66.50;;;;;;4997839;28;20197;-81
2022/05/17 07:53:14;;;;;;;15.15;8.98;;;26.10;66.40;;;;;;4985830;28;20200;-81
2022/05/17 07:55:45;;;;;;;20.95;8.68;;;26.10;66.30;;;;;;5001034;28;20896;-82
2022/05/17 07:58:15;;;;;;;16.77;8.10;;;26.10;66.00;;;;;;4999675;28;20204;-80
2022/05/17 08:00:44;;;;;;;19.58;7.65;;;26.10;66.20;;;;;;4996054;28;21579;-80
2022/05/17 08:03:16;;;;;;;14.07;7.90;;;26.20;66.40;;;;;;4991171;28;20196;-77
2022/05/17 08:05:46;;;;;;;14.80;8.48;;;26.20;66.30;;;;;;5000073;28;20228;-82
2022/05/17 08:08:14;;;;;;;15.85;8.18;;;26.20;66.00;;;;;;4988999;28;20208;-79
2022/05/17 08:10:43;;;;;;;11.65;6.95;;;26.30;65.90;;;;;;4992802;28;20201;-78
2022/05/17 08:13:14;;;;;;;15.23;7.10;;;26.40;66.00;;;;;;4988250;28;20193;-78
2022/05/17 08:15:42;;;;;;;13.63;7.28;;;26.40;65.80;;;;;;4996418;28;20601;-76
2022/05/17 08:18:11;;;;;;;15.55;6.47;;;26.50;65.60;;;;;;4999542;28;20211;-75
2022/05/17 08:20:41;;;;;;;14.70;7.15;;;26.60;65.80;;;;;;4992243;28;20213;-77
2022/05/17 08:23:10;;;;;;;15.27;6.80;;;26.60;65.00;;;;;;4993326;28;20203;-79
2022/05/17 08:28:24;;;;;;;14.45;6.43;;;26.70;64.80;;;;;;4991599;28;20207;-81
2022/05/17 08:30:52;;;;;;;18.70;6.75;;;26.70;64.70;;;;;;4988771;28;20231;-78
2022/05/17 08:33:23;;;;;;;20.40;5.72;;;26.80;65.00;;;;;;4986797;28;20208;-79
2022/05/17 08:35:55;;;;;;;14.48;5.43;;;26.90;64.70;;;;;;4994960;28;20192;-79
2022/05/17 08:38:27;;;;;;;16.73;5.28;;;26.90;64.00;;;;;;4988626;28;20204;-79
2022/05/17 08:41:16;;;;;;;13.15;6.07;;;27.00;62.80;;;;;;4987365;28;20189;-77
2022/05/17 08:43:54;;;;;;;12.73;5.68;;;27.10;62.50;;;;;;4985592;28;20215;-80
2022/05/17 08:46:32;;;;;;;13.80;5.85;;;27.10;62.10;;;;;;4997132;28;20242;-78
2022/05/17 08:49:06;;;;;;;13.32;6.30;;;27.20;61.30;;;;;;4993059;28;20189;-80
2022/05/17 08:51:42;;;;;;;14.07;5.30;;;27.30;61.00;;;;;;4986296;28;20231;-78
2022/05/17 08:54:15;;;;;;;10.65;5.50;;;27.30;60.70;;;;;;4981052;28;20197;-77
2022/05/17 08:56:50;;;;;;;14.13;5.63;;;27.30;60.80;;;;;;4985473;28;20189;-80
2022/05/17 08:59:23;;;;;;;14.30;4.93;;;27.30;60.70;;;;;;4959758;28;20235;-78
2022/05/17 09:02:02;;;;;;;16.83;4.80;;;27.40;60.30;;;;;;4989170;28;20235;-76
2022/05/17 09:04:53;;;;;;;14.50;5.22;;;27.50;60.00;;;;;;4984304;28;20202;-77
2022/05/17 09:07:26;;;;;;;8.70;4.20;;;27.50;59.80;;;;;;4996075;28;20246;-79
2022/05/17 09:10:02;;;;;;;17.85;4.78;;;27.60;59.70;;;;;;4993561;28;20197;-80
2022/05/17 09:12:43;;;;;;;10.68;3.92;;;27.70;59.20;;;;;;4991473;28;20207;-80
2022/05/17 09:15:15;;;;;;;7.60;3.72;;;27.70;59.00;;;;;;4990025;28;20206;-80
2022/05/17 09:17:45;;;;;;;10.98;4.18;;;27.80;59.10;;;;;;4995059;28;20224;-80
2022/05/17 09:20:18;;;;;;;9.77;4.00;;;27.80;58.30;;;;;;4994800;28;20236;-80
2022/05/17 09:22:48;;;;;;;12.52;4.13;;;27.80;58.40;;;;;;4998502;28;20654;-76
2022/05/17 09:25:20;;;;;;;9.50;3.95;;;27.90;57.60;;;;;;4993870;28;20196;-83
2022/05/17 09:27:53;;;;;;;8.15;3.55;;;28.00;57.10;;;;;;4984277;28;20204;-79
2022/05/17 09:30:36;;;;;;;11.27;4.35;;;28.00;57.30;;;;;;4995833;28;20200;-83
2022/05/17 09:33:08;;;;;;;8.88;3.80;;;28.00;56.80;;;;;;4998194;28;20204;-81
2022/05/17 09:35:43;;;;;;;7.80;3.20;;;28.10;56.80;;;;;;4995599;28;20186;-80
2022/05/17 09:38:15;;;;;;;9.60;3.70;;;28.10;53.60;;;;;;4988243;28;20211;-80
2022/05/17 09:40:48;;;;;;;8.13;2.67;;;28.10;53.50;;;;;;4987270;28;20209;-79
2022/05/17 09:43:17;;;;;;;9.60;3.30;;;28.10;53.60;;;;;;4993182;28;20627;-81
2022/05/17 09:45:58;;;;;;;4.70;2.78;;;28.10;53.50;;;;;;4988401;28;20243;-80
2022/05/17 09:48:31;;;;;;;6.95;3.28;;;28.20;53.40;;;;;;4982649;28;20193;-80
2022/05/17 09:53:50;;;;;;;4.47;2.67;;;28.30;52.90;;;;;;4991974;28;20209;-80
2022/05/17 09:56:26;;;;;;;3.75;2.53;;;28.30;51.60;;;;;;4992732;28;20205;-87
2022/05/17 09:58:56;;;;;;;9.73;3.13;;;28.40;51.60;;;;;;4995208;28;20700;-82
2022/05/17 10:01:29;;;;;;;7.03;2.75;;;28.40;51.70;;;;;;4994347;28;20675;-78
2022/05/17 10:04:05;;;;;;;6.68;2.90;;;28.50;52.20;;;;;;4991940;28;20193;-79
2022/05/17 10:06:36;;;;;;;7.68;3.35;;;28.60;51.80;;;;;;4995603;28;20230;-77
2022/05/17 10:09:08;;;;;;;6.45;2.50;;;28.70;51.40;;;;;;4994103;28;20212;-79
2022/05/17 10:11:50;;;;;;;6.03;2.55;;;28.80;51.60;;;;;;4997627;28;20192;-79
2022/05/17 10:14:27;;;;;;;3.60;2.42;;;28.90;51.20;;;;;;5000503;28;20215;-81
2022/05/17 10:17:02;;;;;;;4.10;2.60;;;28.90;50.50;;;;;;4997486;28;20207;-81
2022/05/17 10:19:42;;;;;;;8.23;3.38;;;29.00;50.60;;;;;;5000851;28;20200;-76
2022/05/17 10:22:22;;;;;;;6.75;3.22;;;29.10;50.80;;;;;;4996187;28;20196;-79
2022/05/17 10:24:56;;;;;;;7.45;2.83;;;29.20;51.00;;;;;;4987052;28;20201;-78
2022/05/17 10:27:28;;;;;;;3.60;2.58;;;29.30;51.30;;;;;;4980315;28;20196;-79
2022/05/17 10:30:02;;;;;;;6.95;2.60;;;29.30;50.50;;;;;;4990583;28;20189;-78
2022/05/17 10:32:35;;;;;;;6.15;2.90;;;29.40;50.30;;;;;;4990745;28;20291;-80
2022/05/17 10:35:16;;;;;;;6.25;3.03;;;29.40;49.60;;;;;;4992759;28;20193;-80
2022/05/17 10:37:51;;;;;;;4.45;3.10;;;29.50;49.70;;;;;;4992153;28;20235;-79
2022/05/17 10:40:25;;;;;;;6.70;2.92;;;29.50;49.70;;;;;;4990387;28;20217;-81
2022/05/17 10:42:54;;;;;;;4.97;2.35;;;29.50;50.10;;;;;;4998242;28;20196;-82
2022/05/17 10:45:32;;;;;;;5.22;2.67;;;29.50;48.90;;;;;;4989157;28;20618;-80
2022/05/17 10:48:10;;;;;;;4.35;2.22;;;29.50;47.50;;;;;;4993710;28;20595;-80
2022/05/17 10:50:48;;;;;;;3.55;2.70;;;29.50;47.30;;;;;;4981200;28;20192;-79
2022/05/17 10:53:37;;;;;;;3.63;2.50;;;29.40;47.10;;;;;;4999785;28;20746;-78
2022/05/17 10:56:18;;;;;;;5.80;2.67;;;29.50;47.90;;;;;;4999337;28;20192;-80
2022/05/17 10:58:55;;;;;;;3.35;2.67;;;29.50;48.00;;;;;;4984214;28;20201;-78
2022/05/17 11:01:30;;;;;;;4.18;2.53;;;29.60;48.00;;;;;;4990308;28;20208;-77
2022/05/17 11:04:27;;;;;;;5.47;2.35;;;29.60;48.00;;;;;;4988025;28;20197;-81
2022/05/17 11:07:04;;;;;;;3.45;2.50;;;29.70;48.30;;;;;;4988584;28;20237;-79
2022/05/17 11:09:43;;;;;;;3.30;2.45;;;29.70;48.20;;;;;;4986784;28;20199;-77
2022/05/17 11:12:15;;;;;;;6.65;2.72;;;29.70;47.70;;;;;;5000176;28;20219;-78
2022/05/17 11:14:48;;;;;;;6.93;2.70;;;29.80;48.20;;;;;;4978916;28;20213;-78
2022/05/17 11:17:36;;;;;;;4.10;2.15;;;29.80;47.50;;;;;;4987795;28;20914;-84
2022/05/17 11:20:13;;;;;;;7.43;2.83;;;29.80;45.90;;;;;;4994689;28;20279;-82
2022/05/17 11:22:49;;;;;;;7.82;2.65;;;29.80;45.50;;;;;;4994208;28;20227;-80
2022/05/17 11:25:45;;;;;;;4.80;2.50;;;29.90;46.30;;;;;;4995014;28;20207;-81
2022/05/17 11:28:44;;;;;;;7.82;2.45;;;30.00;46.20;;;;;;4981294;28;20201;-80
2022/05/17 11:31:17;;;;;;;11.93;2.63;;;30.10;46.40;;;;;;5000693;28;20561;-83
2022/05/17 11:33:50;;;;;;;3.97;2.22;;;30.10;46.50;;;;;;4999029;28;20247;-82
2022/05/17 11:36:43;;;;;;;3.45;2.35;;;30.20;45.80;;;;;;4991963;28;20208;-83
2022/05/17 11:39:46;;;;;;;4.05;2.42;;;30.20;46.00;;;;;;4997348;28;20196;-81
2022/05/17 11:42:28;;;;;;;4.03;2.38;;;30.30;46.20;;;;;;4988701;28;20367;-81
2022/05/17 11:45:18;;;;;;;7.68;2.63;;;30.30;46.30;;;;;;4993122;28;20204;-81
2022/05/17 11:47:53;;;;;;;8.88;3.10;;;30.30;46.40;;;;;;4995813;28;20232;-81
2022/05/17 11:50:45;;;;;;;3.60;2.45;;;30.40;46.90;;;;;;4995617;28;20210;-81
2022/05/17 11:53:42;;;;;;;4.70;2.90;;;30.40;46.20;;;;;;4991402;28;20340;-78
2022/05/17 11:56:21;;;;;;;5.53;3.22;;;30.50;46.40;;;;;;4989826;28;20189;-82
2022/05/17 11:58:51;;;;;;;8.50;2.47;;;30.60;46.80;;;;;;5000118;28;20192;-81
2022/05/17 12:01:46;;;;;;;6.65;2.47;;;30.70;47.00;;;;;;4996744;28;20208;-81
2022/05/17 12:04:39;;;;;;;5.10;2.55;;;30.70;47.00;;;;;;4974553;28;21020;-80
2022/05/17 12:07:28;;;;;;;5.47;2.58;;;30.80;47.10;;;;;;4988236;28;20704;-81
2022/05/17 12:10:00;;;;;;;4.38;2.38;;;30.90;46.40;;;;;;4993170;28;20204;-80
2022/05/17 12:12:51;;;;;;;4.78;2.75;;;31.00;46.30;;;;;;4988342;28;20199;-83
2022/05/17 12:15:34;;;;;;;7.32;2.80;;;31.00;44.80;;;;;;4986507;28;20204;-79
2022/05/17 12:18:14;;;;;;;3.63;2.03;;;31.00;45.40;;;;;;4994530;28;20197;-81
2022/05/17 12:21:00;;;;;;;5.43;2.33;;;31.10;45.30;;;;;;4980757;28;20221;-82
2022/05/17 12:23:33;;;;;;;6.65;2.13;;;31.20;45.90;;;;;;4999154;28;20207;-79
2022/05/17 12:26:06;;;;;;;4.82;2.40;;;31.30;45.40;;;;;;4991109;28;20203;-79
2022/05/17 12:28:47;;;;;;;4.15;2.38;;;31.30;45.20;;;;;;4983669;28;20227;-82
2022/05/17 12:31:20;;;;;;;6.20;2.20;;;31.40;45.20;;;;;;4992093;28;20193;-81
2022/05/17 12:33:50;;;;;;;6.93;2.42;;;31.50;44.80;;;;;;4998460;28;20291;-80
2022/05/17 12:36:23;;;;;;;4.32;2.00;;;31.50;44.40;;;;;;4991413;28;20200;-80
2022/05/17 12:44:34;;;;;;;5.82;2.47;;;31.70;44.90;;;;;;4991030;28;20209;-81
2022/05/17 12:47:03;;;;;;;3.65;2.28;;;31.70;43.60;;;;;;4988110;28;20235;-78
2022/05/17 12:49:33;;;;;;;6.20;2.67;;;31.70;42.80;;;;;;4995649;28;20263;-81
2022/05/17 12:52:10;;;;;;;8.18;2.33;;;31.70;42.90;;;;;;4993637;28;20197;-80
2022/05/17 12:54:39;;;;;;;8.23;2.33;;;31.60;42.60;;;;;;4990782;28;20199;-81
2022/05/17 12:57:24;;;;;;;8.07;2.25;;;31.70;42.70;;;;;;4991141;28;20201;-79
2022/05/17 12:59:53;;;;;;;4.93;2.30;;;31.60;42.70;;;;;;4994225;28;20201;-83
2022/05/17 13:02:24;;;;;;;5.70;2.35;;;31.60;43.00;;;;;;4995545;28;20215;-80
2022/05/17 13:04:54;;;;;;;6.13;2.20;;;31.60;43.20;;;;;;5002289;28;20279;-79
2022/05/17 13:07:24;;;;;;;4.63;2.35;;;31.70;43.50;;;;;;4992050;28;20568;-80
2022/05/17 13:09:58;;;;;;;8.23;2.13;;;31.60;42.90;;;;;;4988701;28;20790;-81
2022/05/17 13:12:40;;;;;;;7.25;2.45;;;31.70;43.40;;;;;;4999638;28;20655;-84
2022/05/17 13:15:11;;;;;;;7.00;2.47;;;31.70;43.40;;;;;;4991501;28;20291;-81
2022/05/17 13:17:43;;;;;;;8.07;2.20;;;31.70;41.60;;;;;;4994984;28;20232;-80
2022/05/17 13:20:20;;;;;;;7.43;2.10;;;31.70;41.30;;;;;;4993011;28;20193;-80